Time;durP1;ratioP1;P1;durP2;ratioP2;P2;SDS_P1;SDS_P2;PMS_P1;PMS_P2;Temp;Humidity;BMP_temperature;BMP_pressure;BME280_temperature;BME280_humidity;BME280_pressure;Samples;Min_cycle;Max_cycle;Signal;HPM_P1;HPM_P2
2021/12/09 00:01:50;;;;;;;41.30;20.50;;;1.00;99.90;;;;;;5049071;28;20135;-49
2021/12/09 00:04:24;;;;;;;41.70;20.63;;;1.00;99.90;;;;;;5048163;28;20036;-51
2021/12/09 00:06:50;;;;;;;39.13;23.13;;;0.90;99.90;;;;;;5048258;28;20112;-48
2021/12/09 00:09:19;;;;;;;43.35;22.58;;;1.00;99.90;;;;;;5048301;28;20200;-51
2021/12/09 00:11:46;;;;;;;36.88;21.75;;;1.00;99.90;;;;;;5048754;28;20391;-52
2021/12/09 00:14:22;;;;;;;39.10;22.55;;;1.00;99.90;;;;;;5048176;28;20024;-50
2021/12/09 00:16:49;;;;;;;41.15;23.08;;;1.00;99.90;;;;;;5048177;28;20033;-51
2021/12/09 00:19:15;;;;;;;37.97;22.10;;;1.00;99.90;;;;;;5047647;28;20033;-51
2021/12/09 00:21:41;;;;;;;46.17;23.83;;;1.00;99.90;;;;;;5048152;28;20081;-50
2021/12/09 00:24:07;;;;;;;43.80;23.13;;;1.00;99.90;;;;;;5048760;28;20028;-50
2021/12/09 00:26:33;;;;;;;40.50;22.75;;;1.00;99.90;;;;;;5048623;28;20033;-53
2021/12/09 00:28:59;;;;;;;39.80;22.90;;;0.90;99.90;;;;;;5046738;28;20132;-49
2021/12/09 00:31:25;;;;;;;38.60;23.77;;;1.00;99.90;;;;;;5046374;28;20605;-51
2021/12/09 00:33:50;;;;;;;38.75;20.73;;;0.90;99.90;;;;;;5048161;28;20056;-53
2021/12/09 00:36:26;;;;;;;39.85;21.30;;;0.90;99.90;;;;;;5047013;28;20067;-48
2021/12/09 00:38:54;;;;;;;40.38;23.02;;;1.00;99.90;;;;;;5048174;28;20025;-49
2021/12/09 00:41:20;;;;;;;41.28;22.60;;;1.00;99.90;;;;;;5048331;28;20029;-51
2021/12/09 00:43:46;;;;;;;39.33;22.10;;;0.90;99.90;;;;;;5048022;28;20038;-51
2021/12/09 00:46:11;;;;;;;37.13;22.30;;;0.90;99.90;;;;;;5048127;28;20096;-52
2021/12/09 00:48:37;;;;;;;41.83;22.90;;;0.90;99.90;;;;;;5047786;28;20048;-48
2021/12/09 00:51:04;;;;;;;38.90;21.17;;;0.90;99.90;;;;;;5048432;28;20083;-51
2021/12/09 00:53:29;;;;;;;39.60;23.02;;;0.90;99.90;;;;;;5047963;28;20033;-51
2021/12/09 00:55:55;;;;;;;44.75;23.42;;;0.90;99.90;;;;;;5047717;28;20502;-56
2021/12/09 00:58:21;;;;;;;42.08;22.42;;;0.90;99.90;;;;;;5047141;28;20041;-49
2021/12/09 01:00:47;;;;;;;41.38;22.60;;;0.90;99.90;;;;;;5047953;28;20100;-49
2021/12/09 01:03:14;;;;;;;38.90;22.10;;;0.90;99.90;;;;;;5047555;28;20025;-50
2021/12/09 01:05:40;;;;;;;40.42;23.38;;;0.90;99.90;;;;;;5048087;28;20025;-53
2021/12/09 01:08:06;;;;;;;39.55;23.30;;;0.90;99.90;;;;;;5046780;28;20021;-52
2021/12/09 01:10:32;;;;;;;35.28;20.60;;;0.90;99.90;;;;;;5048895;28;20083;-52
2021/12/09 01:12:58;;;;;;;40.78;22.45;;;0.90;99.90;;;;;;5051361;28;20490;-57
2021/12/09 01:15:25;;;;;;;44.63;23.40;;;0.90;99.90;;;;;;5052196;28;20394;-52
2021/12/09 01:17:50;;;;;;;39.10;23.20;;;0.90;99.90;;;;;;5051458;28;20435;-52
2021/12/09 01:20:20;;;;;;;42.67;23.15;;;0.90;99.90;;;;;;5052217;28;20025;-54
2021/12/09 01:22:46;;;;;;;42.03;21.65;;;0.90;99.90;;;;;;5051362;28;20079;-48
2021/12/09 01:25:15;;;;;;;45.67;24.00;;;0.90;99.90;;;;;;5051882;28;20028;-48
2021/12/09 01:27:44;;;;;;;47.63;23.80;;;0.90;99.90;;;;;;5040732;28;20068;-52
2021/12/09 01:30:14;;;;;;;39.63;24.10;;;1.00;99.90;;;;;;5046922;28;20021;-49
2021/12/09 01:32:48;;;;;;;41.00;22.55;;;0.90;99.90;;;;;;5051452;28;20116;-50
2021/12/09 01:35:16;;;;;;;43.22;23.05;;;0.90;99.90;;;;;;5050883;28;20029;-48
2021/12/09 01:37:42;;;;;;;50.85;25.60;;;0.90;99.90;;;;;;5060622;28;20017;-50
2021/12/09 01:40:09;;;;;;;51.22;25.98;;;0.90;99.90;;;;;;5047264;28;20025;-50
2021/12/09 01:42:35;;;;;;;50.22;23.58;;;0.90;99.90;;;;;;5043443;28;20029;-55
2021/12/09 01:45:02;;;;;;;45.50;24.42;;;0.90;99.90;;;;;;5032242;28;20029;-52
2021/12/09 01:47:28;;;;;;;46.08;24.08;;;0.90;99.90;;;;;;5047398;28;20499;-48
2021/12/09 01:49:55;;;;;;;48.60;24.35;;;0.90;99.90;;;;;;5051349;28;20151;-48
2021/12/09 01:52:20;;;;;;;46.95;24.95;;;0.90;99.90;;;;;;5050736;28;20681;-52
2021/12/09 01:54:46;;;;;;;47.80;24.95;;;0.80;99.90;;;;;;5051534;28;20036;-49
2021/12/09 01:57:12;;;;;;;45.80;25.08;;;0.80;99.90;;;;;;5051312;28;20430;-51
2021/12/09 01:59:37;;;;;;;46.70;26.67;;;0.80;99.90;;;;;;5029621;28;20514;-54
2021/12/09 02:02:03;;;;;;;48.83;23.77;;;0.80;99.90;;;;;;5041534;28;20112;-49
2021/12/09 02:04:29;;;;;;;44.20;24.63;;;0.80;99.90;;;;;;5048065;28;20510;-50
2021/12/09 02:06:55;;;;;;;49.75;26.23;;;0.80;99.90;;;;;;5043517;28;20040;-48
2021/12/09 02:09:21;;;;;;;50.75;25.50;;;0.80;99.90;;;;;;5038106;28;20548;-50
2021/12/09 02:11:47;;;;;;;50.13;26.27;;;0.80;99.90;;;;;;5050279;28;20056;-49
2021/12/09 02:14:12;;;;;;;51.38;26.30;;;0.80;99.90;;;;;;5050417;28;20043;-49
2021/12/09 02:16:39;;;;;;;50.50;25.38;;;0.80;99.90;;;;;;5050751;28;20033;-50
2021/12/09 02:19:05;;;;;;;47.05;26.30;;;0.80;99.90;;;;;;5041145;28;20033;-50
2021/12/09 02:21:34;;;;;;;49.00;24.23;;;0.80;99.90;;;;;;5030796;28;20545;-50
2021/12/09 02:24:06;;;;;;;53.85;24.65;;;0.80;99.90;;;;;;5048613;28;20029;-53
2021/12/09 02:26:36;;;;;;;46.55;25.83;;;0.80;99.90;;;;;;5050930;28;20068;-49
2021/12/09 02:29:03;;;;;;;47.17;24.88;;;0.80;99.90;;;;;;5043369;28;20487;-50
2021/12/09 02:31:32;;;;;;;47.20;25.27;;;0.80;99.90;;;;;;5045502;28;20108;-51
2021/12/09 02:33:59;;;;;;;48.13;25.02;;;0.80;99.90;;;;;;5049021;28;20093;-48
2021/12/09 02:36:26;;;;;;;44.88;25.55;;;0.80;99.90;;;;;;5043109;28;20132;-52
2021/12/09 02:38:52;;;;;;;46.80;24.40;;;0.70;99.90;;;;;;5030719;28;20034;-52
2021/12/09 02:41:22;;;;;;;49.13;25.48;;;0.80;99.90;;;;;;5035602;28;20045;-50
2021/12/09 02:43:55;;;;;;;53.67;26.25;;;0.80;99.90;;;;;;5050099;28;20047;-51
2021/12/09 02:46:23;;;;;;;55.22;27.75;;;0.80;99.90;;;;;;5050271;28;20223;-48
2021/12/09 02:48:49;;;;;;;50.83;26.13;;;0.80;99.90;;;;;;5049410;28;20029;-48
2021/12/09 02:51:15;;;;;;;53.70;27.98;;;0.80;99.90;;;;;;5043293;28;20233;-48
2021/12/09 02:53:40;;;;;;;57.15;25.85;;;0.80;99.90;;;;;;5033829;28;20029;-49
2021/12/09 02:56:07;;;;;;;56.72;27.27;;;0.80;99.90;;;;;;5049637;28;20033;-54
2021/12/09 02:58:33;;;;;;;51.80;25.08;;;0.70;99.90;;;;;;5047764;28;20096;-51
2021/12/09 03:01:01;;;;;;;54.50;26.33;;;0.80;99.90;;;;;;5047238;28;20117;-48
2021/12/09 03:03:27;;;;;;;48.38;27.20;;;0.70;99.90;;;;;;5048226;28;20104;-49
2021/12/09 03:05:57;;;;;;;55.05;27.30;;;0.70;99.90;;;;;;5048293;28;20044;-49
2021/12/09 03:08:34;;;;;;;53.08;26.50;;;0.70;99.90;;;;;;5029834;28;20075;-51
2021/12/09 03:11:21;;;;;;;;;;;0.70;99.90;;;;;;5030445;28;20025;-49
2021/12/09 03:13:49;;;;;;;51.97;24.33;;;0.70;99.90;;;;;;5030624;28;19909;-50
2021/12/09 03:16:19;;;;;;;53.05;25.58;;;0.70;99.90;;;;;;5041787;28;20036;-49
2021/12/09 03:18:48;;;;;;;52.72;25.67;;;0.70;99.90;;;;;;5029492;28;20025;-49
2021/12/09 03:21:16;;;;;;;52.95;25.85;;;0.70;99.90;;;;;;5037036;28;20059;-53
2021/12/09 03:23:42;;;;;;;51.35;26.75;;;0.70;99.90;;;;;;5049531;28;20102;-52
2021/12/09 03:26:08;;;;;;;54.97;28.42;;;0.60;99.90;;;;;;5036236;28;20480;-49
2021/12/09 03:28:33;;;;;;;51.20;27.38;;;0.60;99.90;;;;;;5029970;28;20112;-52
2021/12/09 03:30:59;;;;;;;51.10;26.05;;;0.70;99.90;;;;;;5030100;28;20132;-51
2021/12/09 03:33:24;;;;;;;61.40;27.80;;;0.60;99.90;;;;;;5035998;28;20428;-51
2021/12/09 03:35:58;;;;;;;58.20;28.20;;;0.60;99.90;;;;;;5046803;28;20392;-55
2021/12/09 03:38:24;;;;;;;65.22;29.58;;;0.70;99.90;;;;;;5028912;28;20480;-51
2021/12/09 03:40:49;;;;;;;52.63;28.13;;;0.70;99.90;;;;;;5028311;28;20060;-49
2021/12/09 03:43:15;;;;;;;60.35;29.88;;;0.70;99.90;;;;;;5029352;28;20044;-49
2021/12/09 03:45:41;;;;;;;56.78;28.20;;;0.70;99.90;;;;;;5029071;28;20111;-51
2021/12/09 03:48:06;;;;;;;51.55;27.30;;;0.60;99.90;;;;;;5028974;28;20033;-56
2021/12/09 03:50:32;;;;;;;58.25;29.83;;;0.60;99.90;;;;;;5034748;28;20072;-48
2021/12/09 03:52:58;;;;;;;58.53;28.70;;;0.60;99.90;;;;;;5047584;28;20025;-48
2021/12/09 03:55:23;;;;;;;62.03;30.00;;;0.60;99.90;;;;;;5049027;28;20087;-50
2021/12/09 03:57:49;;;;;;;62.05;28.02;;;0.60;99.90;;;;;;5031750;28;20033;-54
2021/12/09 04:00:15;;;;;;;61.00;29.90;;;0.60;99.90;;;;;;5029313;28;20033;-53
2021/12/09 04:02:40;;;;;;;61.75;29.67;;;0.60;99.90;;;;;;5030140;28;20029;-51
2021/12/09 04:05:07;;;;;;;56.20;27.77;;;0.60;99.90;;;;;;5048594;28;20021;-53
2021/12/09 04:07:32;;;;;;;56.97;28.88;;;0.60;99.90;;;;;;5047146;28;20021;-49
2021/12/09 04:09:58;;;;;;;53.63;27.75;;;0.60;99.90;;;;;;5047125;28;20078;-49
2021/12/09 04:12:24;;;;;;;58.95;28.65;;;0.60;99.90;;;;;;5048247;28;20033;-53
2021/12/09 04:14:49;;;;;;;57.17;28.83;;;0.60;99.90;;;;;;5047814;28;20035;-54
2021/12/09 04:17:15;;;;;;;56.47;28.50;;;0.60;99.90;;;;;;5048453;28;20059;-51
2021/12/09 04:19:47;;;;;;;57.95;29.75;;;0.60;99.90;;;;;;5047889;28;20217;-52
2021/12/09 04:22:14;;;;;;;56.22;27.65;;;0.60;99.90;;;;;;5048212;28;20517;-49
2021/12/09 04:24:40;;;;;;;53.92;27.60;;;0.60;99.90;;;;;;5040933;28;20036;-49
2021/12/09 04:27:06;;;;;;;54.38;27.90;;;0.60;99.90;;;;;;5035670;28;20025;-53
2021/12/09 04:29:32;;;;;;;64.22;29.65;;;0.60;99.90;;;;;;5045954;28;20033;-50
2021/12/09 04:31:57;;;;;;;55.08;28.67;;;0.60;99.90;;;;;;5038571;28;20376;-49
2021/12/09 04:34:23;;;;;;;52.40;27.60;;;0.60;99.90;;;;;;5028331;28;20472;-50
2021/12/09 04:36:49;;;;;;;59.42;28.52;;;0.60;99.90;;;;;;5044562;28;20025;-55
2021/12/09 04:39:15;;;;;;;57.83;28.85;;;0.50;99.90;;;;;;5046248;28;20452;-50
2021/12/09 04:41:42;;;;;;;60.88;28.60;;;0.50;99.90;;;;;;5046568;28;20047;-55
2021/12/09 04:44:11;;;;;;;53.88;28.95;;;0.50;99.90;;;;;;5047693;28;20029;-49
2021/12/09 04:46:36;;;;;;;49.50;25.48;;;0.50;99.90;;;;;;5037452;28;20451;-48
2021/12/09 04:49:05;;;;;;;56.47;27.48;;;0.50;99.90;;;;;;5040978;22;20045;-50
2021/12/09 04:51:32;;;;;;;57.80;28.67;;;0.50;99.90;;;;;;4988160;28;20118;-52
2021/12/09 04:53:57;;;;;;;57.45;28.60;;;0.50;99.90;;;;;;4988107;28;20022;-54
2021/12/09 04:56:23;;;;;;;56.13;28.50;;;0.50;99.90;;;;;;4987147;28;20049;-56
2021/12/09 04:58:49;;;;;;;55.80;28.35;;;0.50;99.90;;;;;;4988658;28;20429;-55
2021/12/09 05:01:15;;;;;;;57.97;26.88;;;0.50;99.90;;;;;;5007654;28;20454;-54
2021/12/09 05:03:45;;;;;;;53.17;27.70;;;0.50;99.90;;;;;;5007955;28;20025;-52
2021/12/09 05:06:11;;;;;;;52.80;27.75;;;0.50;99.90;;;;;;5006262;28;20487;-56
2021/12/09 05:08:39;;;;;;;52.17;26.73;;;0.50;99.90;;;;;;5008404;28;20040;-53
2021/12/09 05:13:34;;;;;;;57.13;27.90;;;0.50;99.90;;;;;;5007849;28;20068;-55
2021/12/09 05:16:01;;;;;;;59.33;28.05;;;0.50;99.90;;;;;;5008274;28;20044;-54
2021/12/09 05:18:29;;;;;;;56.13;28.42;;;0.50;99.90;;;;;;5007808;28;20018;-55
2021/12/09 05:20:55;;;;;;;57.78;28.58;;;0.50;99.90;;;;;;5008235;28;20060;-55
2021/12/09 05:23:22;;;;;;;57.10;28.77;;;0.50;99.90;;;;;;5007379;28;20022;-55
2021/12/09 05:25:48;;;;;;;54.88;27.15;;;0.40;99.90;;;;;;4990101;28;20038;-54
2021/12/09 05:28:16;;;;;;;48.65;26.98;;;0.40;99.90;;;;;;5007681;28;20033;-58
2021/12/09 05:33:32;;;;;;;58.92;28.48;;;0.50;99.90;;;;;;5007578;28;20618;-54
2021/12/09 05:35:58;;;;;;;52.80;27.13;;;0.50;99.90;;;;;;5008240;28;20053;-54
2021/12/09 05:38:24;;;;;;;51.20;26.55;;;0.50;99.90;;;;;;5007752;28;20057;-54
2021/12/09 05:40:50;;;;;;;55.58;27.25;;;0.50;99.90;;;;;;4991568;28;20099;-54
2021/12/09 05:43:16;;;;;;;52.83;26.30;;;0.50;99.90;;;;;;5007555;28;20552;-54
2021/12/09 05:45:43;;;;;;;59.25;29.30;;;0.50;99.90;;;;;;5006722;28;20038;-53
2021/12/09 05:48:10;;;;;;;51.55;27.70;;;0.50;99.90;;;;;;5007428;28;20053;-52
2021/12/09 05:50:37;;;;;;;54.63;28.48;;;0.50;99.90;;;;;;5007259;28;20022;-54
2021/12/09 05:53:02;;;;;;;53.35;27.77;;;0.50;99.90;;;;;;5007502;28;20030;-52
2021/12/09 05:55:28;;;;;;;49.95;26.67;;;0.50;99.90;;;;;;5007077;28;20018;-53
2021/12/09 05:57:54;;;;;;;58.65;28.30;;;0.40;99.90;;;;;;5010015;28;20103;-54
2021/12/09 06:00:19;;;;;;;53.00;26.73;;;0.50;99.90;;;;;;5010815;28;20101;-52
2021/12/09 06:02:45;;;;;;;58.13;28.52;;;0.50;99.90;;;;;;5010576;28;20484;-53
2021/12/09 06:05:10;;;;;;;53.92;26.95;;;0.50;99.90;;;;;;5011081;28;20125;-54
2021/12/09 06:07:36;;;;;;;53.05;28.30;;;0.40;99.90;;;;;;5010115;28;20030;-52
2021/12/09 06:10:04;;;;;;;49.55;26.23;;;0.40;99.90;;;;;;5010711;28;20034;-51
2021/12/09 06:12:30;;;;;;;57.90;28.00;;;0.40;99.90;;;;;;5010544;28;20018;-52
2021/12/09 06:14:55;;;;;;;56.17;28.88;;;0.40;99.90;;;;;;5010465;28;20084;-52
2021/12/09 06:17:21;;;;;;;52.35;28.63;;;0.40;99.90;;;;;;5010851;28;20033;-52
2021/12/09 06:19:46;;;;;;;56.97;28.35;;;0.40;99.90;;;;;;5010183;28;20026;-53
2021/12/09 06:22:12;;;;;;;52.83;29.27;;;0.40;99.90;;;;;;5011799;28;20412;-52
2021/12/09 06:24:37;;;;;;;56.60;27.52;;;0.40;99.90;;;;;;5011801;28;20381;-54
2021/12/09 06:27:06;;;;;;;57.45;27.20;;;0.40;99.90;;;;;;5011187;28;20025;-53
2021/12/09 06:29:32;;;;;;;54.40;26.52;;;0.40;99.90;;;;;;5010070;28;20309;-51
2021/12/09 06:31:58;;;;;;;61.83;29.55;;;0.40;99.90;;;;;;5010629;28;20022;-52
2021/12/09 06:34:23;;;;;;;52.70;27.35;;;0.40;99.90;;;;;;5010679;28;20022;-52
2021/12/09 06:36:49;;;;;;;54.08;29.00;;;0.40;99.90;;;;;;5010535;28;20026;-51
2021/12/09 06:39:15;;;;;;;57.58;28.23;;;0.40;99.90;;;;;;5010223;28;20036;-53
2021/12/09 06:41:40;;;;;;;58.28;30.73;;;0.40;99.90;;;;;;5010950;28;20032;-51
2021/12/09 06:44:09;;;;;;;60.97;30.23;;;0.40;99.90;;;;;;5010606;28;20537;-52
2021/12/09 06:46:35;;;;;;;58.83;30.38;;;0.50;99.90;;;;;;5010715;28;20480;-53
2021/12/09 06:49:02;;;;;;;60.10;28.67;;;0.40;99.90;;;;;;5010132;28;20022;-53
2021/12/09 06:51:28;;;;;;;55.35;27.77;;;0.40;99.90;;;;;;5010430;28;20030;-55
2021/12/09 06:53:53;;;;;;;54.78;27.80;;;0.40;99.90;;;;;;5009425;28;20084;-52
2021/12/09 06:56:19;;;;;;;56.25;27.63;;;0.40;99.90;;;;;;5009799;28;20506;-52
2021/12/09 06:58:47;;;;;;;55.15;29.33;;;0.40;99.90;;;;;;5009754;28;20026;-55
2021/12/09 07:01:13;;;;;;;56.83;28.35;;;0.40;99.90;;;;;;5009519;28;20022;-54
2021/12/09 07:03:39;;;;;;;53.58;28.48;;;0.40;99.90;;;;;;5010277;28;20049;-55
2021/12/09 07:06:06;;;;;;;58.25;29.13;;;0.40;99.90;;;;;;5010450;28;20037;-52
2021/12/09 07:08:42;;;;;;;59.35;29.63;;;0.40;99.90;;;;;;5008895;28;20384;-54
2021/12/09 07:11:07;;;;;;;60.60;30.80;;;0.40;99.90;;;;;;5007981;28;20117;-55
2021/12/09 07:13:33;;;;;;;51.05;27.05;;;0.50;99.90;;;;;;5009710;28;20118;-54
2021/12/09 07:15:59;;;;;;;51.72;27.63;;;0.40;99.90;;;;;;5010059;28;20049;-53
2021/12/09 07:18:25;;;;;;;56.60;28.35;;;0.40;99.90;;;;;;5009611;28;20029;-52
2021/12/09 07:20:52;;;;;;;58.70;30.00;;;0.40;99.90;;;;;;5009690;28;20087;-52
2021/12/09 07:23:18;;;;;;;54.35;27.83;;;0.40;99.90;;;;;;5009664;28;20261;-52
2021/12/09 07:25:44;;;;;;;58.28;29.77;;;0.40;99.90;;;;;;5009700;28;20511;-53
2021/12/09 07:28:10;;;;;;;58.28;29.08;;;0.40;99.90;;;;;;5008939;28;20032;-51
2021/12/09 07:30:35;;;;;;;55.83;28.45;;;0.40;99.90;;;;;;5009961;28;20061;-53
2021/12/09 07:33:01;;;;;;;57.15;28.40;;;0.40;99.90;;;;;;5009026;28;20029;-53
2021/12/09 07:35:30;;;;;;;54.75;28.13;;;0.40;99.90;;;;;;5012833;28;20045;-51
2021/12/09 07:37:57;;;;;;;59.45;30.42;;;0.40;99.90;;;;;;5013670;28;20058;-52
2021/12/09 07:40:23;;;;;;;62.25;29.13;;;0.40;99.90;;;;;;5010069;28;20112;-55
2021/12/09 07:42:49;;;;;;;57.58;30.55;;;0.40;99.90;;;;;;5009698;28;20072;-52
2021/12/09 07:45:16;;;;;;;59.47;29.33;;;0.40;99.90;;;;;;5008992;28;20069;-55
2021/12/09 07:47:43;;;;;;;57.28;29.30;;;0.40;99.90;;;;;;5009187;28;20033;-52
2021/12/09 07:50:13;;;;;;;59.33;29.02;;;0.40;99.90;;;;;;5009184;28;20520;-52
2021/12/09 07:52:40;;;;;;;58.28;30.27;;;0.40;99.90;;;;;;5009704;28;20416;-51
2021/12/09 07:55:06;;;;;;;62.65;31.02;;;0.40;99.90;;;;;;5007895;28;20026;-54
2021/12/09 07:57:33;;;;;;;59.67;30.15;;;0.40;99.90;;;;;;5008993;28;20157;-52
2021/12/09 07:59:59;;;;;;;60.00;29.80;;;0.40;99.90;;;;;;5009225;28;20033;-55
2021/12/09 08:02:25;;;;;;;63.97;30.98;;;0.40;99.90;;;;;;5007311;28;20124;-53
2021/12/09 08:04:51;;;;;;;61.28;29.55;;;0.40;99.90;;;;;;5009403;28;20086;-52
2021/12/09 08:07:16;;;;;;;67.28;31.45;;;0.40;99.90;;;;;;5009063;28;20377;-55
2021/12/09 08:09:42;;;;;;;59.63;28.40;;;0.40;99.90;;;;;;5008316;28;20291;-51
2021/12/09 08:12:08;;;;;;;59.22;29.45;;;0.40;99.90;;;;;;5009823;28;20325;-52
2021/12/09 08:14:33;;;;;;;57.85;31.25;;;0.40;99.90;;;;;;5009838;28;20137;-53
2021/12/09 08:17:23;;;;;;;58.58;29.80;;;0.40;99.90;;;;;;5009244;28;20029;-56
2021/12/09 08:19:49;;;;;;;57.63;30.38;;;0.50;99.90;;;;;;5008341;28;20025;-52
2021/12/09 08:22:15;;;;;;;53.05;28.90;;;0.40;99.90;;;;;;5008857;28;20432;-53
2021/12/09 08:24:41;;;;;;;60.45;29.40;;;0.50;99.90;;;;;;5007765;28;20030;-53
2021/12/09 08:27:07;;;;;;;56.13;31.10;;;0.50;99.90;;;;;;5008595;28;20049;-54
2021/12/09 08:29:32;;;;;;;59.42;31.23;;;0.50;99.90;;;;;;5008158;28;20033;-55
2021/12/09 08:31:58;;;;;;;53.97;28.17;;;0.50;99.90;;;;;;5008877;28;20032;-55
2021/12/09 08:34:29;;;;;;;61.58;29.30;;;0.50;99.90;;;;;;5008146;28;20080;-54
2021/12/09 08:36:55;;;;;;;61.40;30.73;;;0.50;99.90;;;;;;5006955;28;20545;-52
2021/12/09 08:39:21;;;;;;;58.15;29.52;;;0.50;99.90;;;;;;5008876;28;20073;-54
2021/12/09 08:41:47;;;;;;;61.30;29.65;;;0.50;99.90;;;;;;5004905;28;20589;-54
2021/12/09 08:44:12;;;;;;;67.07;30.80;;;0.60;99.90;;;;;;5003613;28;20066;-56
2021/12/09 08:46:38;;;;;;;63.85;30.58;;;0.50;99.90;;;;;;5004308;28;20041;-55
2021/12/09 08:49:04;;;;;;;63.90;30.05;;;0.60;99.90;;;;;;4994568;28;20361;-54
2021/12/09 08:51:30;;;;;;;61.40;30.13;;;0.60;99.90;;;;;;4996989;28;20027;-54
2021/12/09 08:53:58;;;;;;;58.45;30.00;;;0.60;99.90;;;;;;5002272;28;20025;-52
2021/12/09 08:56:27;;;;;;;64.22;30.30;;;0.60;99.90;;;;;;4996992;28;20489;-52
2021/12/09 08:58:53;;;;;;;60.05;29.58;;;0.60;99.90;;;;;;5004037;28;20022;-54
2021/12/09 09:01:18;;;;;;;63.47;30.83;;;0.60;99.90;;;;;;4998404;28;20080;-54
2021/12/09 09:03:44;;;;;;;59.35;28.63;;;0.60;99.90;;;;;;5008546;28;20040;-52
2021/12/09 09:06:09;;;;;;;62.45;30.63;;;0.60;99.90;;;;;;5008027;28;20297;-55
2021/12/09 09:08:35;;;;;;;60.70;31.20;;;0.60;99.90;;;;;;5004685;28;20030;-54
2021/12/09 09:11:01;;;;;;;64.25;31.48;;;0.60;99.90;;;;;;5008025;28;20030;-56
2021/12/09 09:13:26;;;;;;;59.22;30.92;;;0.60;99.90;;;;;;5008078;28;20029;-55
2021/12/09 09:15:52;;;;;;;59.67;29.58;;;0.60;99.90;;;;;;5008228;28;20330;-54
2021/12/09 09:18:19;;;;;;;60.15;29.73;;;0.60;99.90;;;;;;5006617;28;20029;-53
2021/12/09 09:20:46;;;;;;;61.65;32.40;;;0.70;99.90;;;;;;5006671;28;20084;-55
2021/12/09 09:23:14;;;;;;;58.45;29.85;;;0.70;99.90;;;;;;5008121;28;20501;-50
2021/12/09 09:25:41;;;;;;;60.15;31.45;;;0.70;99.90;;;;;;5007878;28;20517;-51
2021/12/09 09:28:07;;;;;;;61.55;31.58;;;0.70;99.90;;;;;;5008200;28;20093;-53
2021/12/09 09:30:36;;;;;;;62.33;32.13;;;0.70;99.90;;;;;;5007929;28;20025;-54
2021/12/09 09:33:08;;;;;;;64.57;32.70;;;0.70;99.90;;;;;;5011838;28;20101;-51
2021/12/09 09:35:35;;;;;;;61.13;30.90;;;0.70;99.90;;;;;;5011865;28;20026;-52
2021/12/09 09:38:01;;;;;;;58.92;30.85;;;0.80;99.90;;;;;;5011504;28;20030;-51
2021/12/09 09:40:38;;;;;;;58.40;28.70;;;0.80;99.90;;;;;;5010374;28;20022;-53
2021/12/09 09:43:14;;;;;;;61.90;32.10;;;0.70;99.90;;;;;;5011358;28;20436;-52
2021/12/09 09:45:40;;;;;;;62.10;30.45;;;0.80;99.90;;;;;;5010310;28;20133;-51
2021/12/09 09:48:12;;;;;;;65.00;33.35;;;0.80;99.90;;;;;;5009931;28;20038;-53
2021/12/09 09:50:39;;;;;;;68.75;30.73;;;0.80;99.90;;;;;;5011132;28;20512;-51
2021/12/09 09:53:09;;;;;;;57.10;29.08;;;0.80;99.90;;;;;;5011114;28;20026;-52
2021/12/09 09:55:35;;;;;;;64.28;31.10;;;0.80;99.90;;;;;;5010285;28;20531;-53
2021/12/09 09:58:01;;;;;;;63.58;31.42;;;0.90;99.90;;;;;;5011205;28;20145;-50
2021/12/09 10:00:26;;;;;;;60.35;33.17;;;0.80;99.90;;;;;;5011129;28;20116;-50
2021/12/09 10:02:54;;;;;;;64.43;29.65;;;0.90;99.90;;;;;;5010056;28;20029;-51
2021/12/09 10:05:27;;;;;;;70.55;32.28;;;0.90;99.90;;;;;;5011355;28;20092;-52
2021/12/09 10:07:53;;;;;;;61.97;30.83;;;0.90;99.90;;;;;;5010947;28;20348;-51
2021/12/09 10:10:19;;;;;;;62.53;31.27;;;0.90;99.90;;;;;;5009802;28;20141;-52
2021/12/09 10:12:57;;;;;;;61.95;29.83;;;0.90;99.90;;;;;;5011240;28;20369;-53
2021/12/09 10:15:42;;;;;;;65.75;32.30;;;0.90;99.90;;;;;;5010103;28;20045;-52
2021/12/09 10:18:09;;;;;;;64.28;30.77;;;0.90;99.90;;;;;;5010816;28;20026;-54
2021/12/09 10:20:44;;;;;;;58.00;29.13;;;0.90;99.90;;;;;;5009629;28;20076;-55
2021/12/09 10:23:26;;;;;;;58.35;28.75;;;0.90;99.90;;;;;;5010779;28;20539;-52
2021/12/09 10:26:12;;;;;;;65.25;31.48;;;0.90;99.90;;;;;;5010846;28;20052;-54
2021/12/09 10:28:40;;;;;;;67.20;30.60;;;0.90;99.90;;;;;;5010417;28;20043;-54
2021/12/09 10:31:14;;;;;;;61.17;31.55;;;0.90;99.90;;;;;;5008368;28;20053;-55
2021/12/09 10:34:07;;;;;;;67.05;33.53;;;0.90;99.90;;;;;;5010984;28;20029;-53
2021/12/09 10:36:40;;;;;;;65.20;31.63;;;0.90;99.90;;;;;;5010590;28;20030;-51
2021/12/09 10:39:28;;;;;;;67.68;30.98;;;1.00;99.90;;;;;;5010177;28;20038;-52
2021/12/09 10:41:55;;;;;;;59.20;28.88;;;1.00;99.90;;;;;;5010224;28;20037;-53
2021/12/09 10:44:53;;;;;;;57.00;31.50;;;1.00;99.90;;;;;;5010375;28;20045;-53
2021/12/09 10:50:42;;;;;;;54.78;26.33;;;1.00;99.90;;;;;;5006671;28;19913;-54
2021/12/09 10:55:50;;;;;;;56.03;31.60;;;1.00;99.90;;;;;;5010992;28;20516;-54
2021/12/09 10:58:19;;;;;;;60.13;29.70;;;1.00;99.90;;;;;;5010108;28;20474;-56
2021/12/09 11:00:53;;;;;;;63.88;31.85;;;1.00;99.90;;;;;;5009044;28;20589;-52
2021/12/09 11:03:37;;;;;;;61.67;31.90;;;1.10;99.90;;;;;;4998361;28;20037;-55
2021/12/09 11:06:07;;;;;;;65.63;31.15;;;1.10;99.90;;;;;;5006107;28;20033;-54
2021/12/09 11:08:40;;;;;;;68.00;33.80;;;1.10;99.90;;;;;;5010323;28;20022;-52
2021/12/09 11:11:24;;;;;;;65.30;33.13;;;1.10;99.90;;;;;;4991076;28;20497;-55
2021/12/09 11:13:56;;;;;;;63.00;32.55;;;1.10;99.90;;;;;;4996241;28;20289;-52
2021/12/09 11:16:36;;;;;;;64.40;31.60;;;1.20;99.90;;;;;;5010284;28;20069;-54
2021/12/09 11:19:18;;;;;;;56.80;29.20;;;1.20;99.90;;;;;;5009383;28;20041;-52
2021/12/09 11:21:53;;;;;;;64.45;30.60;;;1.20;99.90;;;;;;5010878;28;20030;-56
2021/12/09 11:24:23;;;;;;;61.90;32.00;;;1.20;99.90;;;;;;5009727;28;20073;-52
2021/12/09 11:27:02;;;;;;;64.47;30.05;;;1.20;99.90;;;;;;5009878;28;20088;-50
2021/12/09 11:29:46;;;;;;;65.05;30.25;;;1.30;99.90;;;;;;5008481;28;20500;-51
2021/12/09 11:34:54;;;;;;;61.25;30.73;;;1.30;99.90;;;;;;5009980;28;20053;-53
2021/12/09 11:39:55;;;;;;;57.03;27.55;;;1.30;99.90;;;;;;5009971;28;20152;-54
2021/12/09 11:42:29;;;;;;;65.53;31.20;;;1.30;99.90;;;;;;5009167;28;20030;-55
2021/12/09 11:44:55;;;;;;;58.22;29.40;;;1.30;99.90;;;;;;5009495;28;20482;-53
2021/12/09 11:47:21;;;;;;;65.60;30.98;;;1.30;99.90;;;;;;5009398;28;20025;-52
2021/12/09 11:49:47;;;;;;;63.00;31.60;;;1.30;99.90;;;;;;5008145;28;20034;-55
2021/12/09 11:52:16;;;;;;;54.13;30.25;;;1.40;99.90;;;;;;5009613;28;20022;-53
2021/12/09 11:54:55;;;;;;;67.15;31.38;;;1.40;99.90;;;;;;5008973;28;20088;-51
2021/12/09 12:27:15;;;;;;;55.67;29.20;;;1.70;99.90;;;;;;4992780;28;20060;-55
2021/12/09 12:33:09;;;;;;;54.38;29.80;;;1.80;99.90;;;;;;5009560;28;20488;-53
2021/12/09 12:41:11;;;;;;;57.10;29.83;;;1.80;99.90;;;;;;5007501;28;20034;-53
2021/12/09 12:43:56;;;;;;;66.47;32.35;;;1.80;99.90;;;;;;5008480;28;20438;-52
2021/12/09 12:47:13;;;;;;;59.45;30.23;;;1.80;99.90;;;;;;5012844;28;20133;-48
2021/12/09 12:49:34;;;;;;;63.15;31.73;;;1.80;99.90;;;;;;5007763;28;20045;-53
2021/12/09 12:52:09;;;;;;;52.13;29.10;;;1.80;99.90;;;;;;5008738;28;20022;-55
2021/12/09 12:57:17;;;;;;;61.53;32.17;;;1.80;99.90;;;;;;5007978;28;20444;-56
2021/12/09 13:00:09;;;;;;;62.55;32.38;;;1.80;99.90;;;;;;5007787;28;20053;-53
2021/12/09 13:05:28;;;;;;;63.78;32.13;;;1.90;99.90;;;;;;5008689;28;20030;-54
2021/12/09 13:16:24;;;;;;;58.08;29.50;;;1.90;99.90;;;;;;4997257;28;20436;-52
2021/12/09 13:21:33;;;;;;;61.03;31.50;;;2.00;99.90;;;;;;5011557;28;20024;-55
2021/12/09 13:24:18;;;;;;;60.10;31.40;;;2.00;99.90;;;;;;5012240;28;20052;-52
2021/12/09 13:48:49;;;;;;;65.25;31.88;;;1.90;99.90;;;;;;4999872;28;20035;-52
2021/12/09 13:52:01;;;;;;;59.40;30.08;;;1.90;99.90;;;;;;5006257;28;20072;-54
2021/12/09 13:54:27;;;;;;;53.22;28.95;;;1.90;99.90;;;;;;5009849;28;20508;-55
2021/12/09 13:56:56;;;;;;;57.28;30.17;;;1.90;99.90;;;;;;5009780;28;20115;-54
2021/12/09 13:59:24;;;;;;;56.10;29.25;;;1.90;99.90;;;;;;5010446;28;20488;-55
2021/12/09 14:01:52;;;;;;;64.43;32.38;;;1.90;99.90;;;;;;5011484;28;20045;-53
2021/12/09 14:04:21;;;;;;;59.03;30.80;;;1.90;99.90;;;;;;5009748;28;20034;-53
2021/12/09 14:06:56;;;;;;;59.38;30.50;;;1.90;99.90;;;;;;5012049;28;20072;-56
2021/12/09 14:09:23;;;;;;;58.90;30.60;;;1.90;99.90;;;;;;5011108;28;20026;-54
2021/12/09 14:11:50;;;;;;;56.38;28.52;;;1.80;99.90;;;;;;5010795;28;20116;-54
2021/12/09 14:14:23;;;;;;;53.35;28.92;;;1.80;99.90;;;;;;5011595;28;20018;-55
2021/12/09 14:16:55;;;;;;;57.42;29.50;;;1.80;99.90;;;;;;5010155;28;20026;-53
2021/12/09 14:22:28;;;;;;;61.15;30.65;;;1.80;99.90;;;;;;5011151;28;20037;-51